createdAt,value
2022-07-28T00:00:55.238Z,0.00
2022-07-28T00:01:55.233Z,0.00
2022-07-28T00:02:55.207Z,0.00
2022-07-28T00:03:55.123Z,0.00
2022-07-28T00:04:55.088Z,0.00
2022-07-28T00:05:55.060Z,0.00
2022-07-28T00:06:55.026Z,0.00
2022-07-28T00:07:54.971Z,0.00
2022-07-28T00:08:54.938Z,0.00
2022-07-28T00:10:00.171Z,0.00
2022-07-28T00:10:54.854Z,0.00
2022-07-28T00:11:55.168Z,0.00
2022-07-28T00:12:54.803Z,0.00
2022-07-28T00:13:54.738Z,0.00
2022-07-28T00:14:54.700Z,0.00
2022-07-28T00:15:54.743Z,0.00
2022-07-28T00:16:54.625Z,0.00
2022-07-28T00:17:54.589Z,0.00
2022-07-28T00:18:54.559Z,0.00
2022-07-28T00:19:54.511Z,0.00
2022-07-28T00:20:54.468Z,0.00
2022-07-28T00:21:54.433Z,0.00
2022-07-28T00:22:54.397Z,0.00
2022-07-28T00:23:54.375Z,0.00
2022-07-28T00:24:54.317Z,0.00
2022-07-28T00:25:54.279Z,0.00
2022-07-28T00:26:54.242Z,0.00
2022-07-28T00:27:54.205Z,0.00
2022-07-28T00:28:54.167Z,0.00
2022-07-28T00:29:54.144Z,0.00
2022-07-28T00:30:54.089Z,0.00
2022-07-28T00:31:54.121Z,0.00
2022-07-28T00:32:54.011Z,0.00
2022-07-28T00:33:53.970Z,0.00
2022-07-28T00:34:53.936Z,0.00
2022-07-28T00:35:53.908Z,0.00
2022-07-28T00:36:53.858Z,0.00
2022-07-28T00:37:53.823Z,0.00
2022-07-28T00:38:53.781Z,0.00
2022-07-28T00:39:53.740Z,0.00
2022-07-28T00:40:53.721Z,0.00
2022-07-28T00:41:53.670Z,0.00
2022-07-28T00:42:53.626Z,0.00
2022-07-28T00:43:53.589Z,0.00
2022-07-28T00:44:53.552Z,0.00
2022-07-28T00:45:53.509Z,0.00
2022-07-28T00:46:53.550Z,0.00
2022-07-28T00:47:53.435Z,0.00
2022-07-28T00:48:53.475Z,0.00
2022-07-28T00:49:53.377Z,0.00
2022-07-28T00:50:53.323Z,0.00
2022-07-28T00:51:53.283Z,0.00
2022-07-28T00:52:53.258Z,0.00
2022-07-28T00:53:53.206Z,0.00
2022-07-28T00:54:53.166Z,0.00
2022-07-28T00:56:03.010Z,0.00
2022-07-28T00:56:53.089Z,0.00
2022-07-28T00:57:53.049Z,0.00
2022-07-28T00:58:53.032Z,0.00
2022-07-28T00:59:52.981Z,0.00
2022-07-28T01:00:52.942Z,0.00
2022-07-28T01:01:53.240Z,0.00
2022-07-28T01:02:53.040Z,0.00
2022-07-28T01:03:52.820Z,0.00
2022-07-28T01:04:52.797Z,0.00
2022-07-28T01:05:52.743Z,0.00
2022-07-28T01:06:52.707Z,0.00
2022-07-28T01:07:52.669Z,0.00
2022-07-28T01:08:52.628Z,0.00
2022-07-28T01:09:52.591Z,0.00
2022-07-28T01:10:52.570Z,0.00
2022-07-28T01:11:52.514Z,0.00
2022-07-28T01:12:52.491Z,0.00
2022-07-28T01:13:52.438Z,0.00
2022-07-28T01:14:52.398Z,0.00
2022-07-28T01:15:52.410Z,0.00
2022-07-28T01:16:52.323Z,0.00
2022-07-28T01:17:52.296Z,0.00
2022-07-28T01:18:52.245Z,0.00
2022-07-28T01:19:52.207Z,0.00
2022-07-28T01:20:52.169Z,0.00
2022-07-28T01:21:52.128Z,0.00
2022-07-28T01:22:52.087Z,0.00
2022-07-28T01:23:52.061Z,0.00
2022-07-28T01:24:52.019Z,0.00
2022-07-28T01:25:51.974Z,0.00
2022-07-28T01:26:51.938Z,0.00
2022-07-28T01:27:51.898Z,0.00
2022-07-28T01:28:51.862Z,0.00
2022-07-28T01:29:51.863Z,0.00
2022-07-28T01:30:51.825Z,0.00
2022-07-28T01:31:51.743Z,0.00
2022-07-28T01:32:51.704Z,0.00
2022-07-28T01:33:51.675Z,0.00
2022-07-28T01:34:51.645Z,0.00
2022-07-28T01:35:51.591Z,0.00
2022-07-28T01:36:51.553Z,0.00
2022-07-28T01:37:51.518Z,0.00
2022-07-28T01:38:51.474Z,0.00
2022-07-28T01:39:51.438Z,0.00
2022-07-28T01:40:51.410Z,0.00
2022-07-28T01:41:51.358Z,0.00
2022-07-28T01:42:51.325Z,0.00
2022-07-28T01:43:51.284Z,0.00
2022-07-28T01:44:51.260Z,0.00
2022-07-28T01:45:51.207Z,0.00
2022-07-28T01:46:51.204Z,0.00
2022-07-28T01:47:51.882Z,0.00
2022-07-28T01:48:51.183Z,0.00
2022-07-28T01:49:51.052Z,0.00
2022-07-28T01:50:51.040Z,0.00
2022-07-28T01:51:50.972Z,0.00
2022-07-28T01:52:50.937Z,0.00
2022-07-28T01:53:50.894Z,0.00
2022-07-28T01:54:50.858Z,0.00
2022-07-28T01:55:50.825Z,0.00
2022-07-28T01:56:50.793Z,0.00
2022-07-28T01:57:50.743Z,0.00
2022-07-28T01:58:50.705Z,0.00
2022-07-28T01:59:50.671Z,0.00
2022-07-28T02:00:50.628Z,0.00
2022-07-28T02:01:50.642Z,0.00
2022-07-28T02:02:50.576Z,0.00
2022-07-28T02:03:50.511Z,0.00
2022-07-28T02:04:50.542Z,0.00
2022-07-28T02:05:50.453Z,0.00
2022-07-28T02:06:50.392Z,0.00
2022-07-28T02:07:50.358Z,0.00
2022-07-28T02:08:50.328Z,0.00
2022-07-28T02:09:50.281Z,0.00
2022-07-28T02:10:50.247Z,0.00
2022-07-28T02:11:50.202Z,0.00
2022-07-28T02:12:50.183Z,0.00
2022-07-28T02:13:50.126Z,0.00
2022-07-28T02:14:50.096Z,0.00
2022-07-28T02:15:50.083Z,0.00
2022-07-28T02:16:50.011Z,0.00
2022-07-28T02:17:49.972Z,0.00
2022-07-28T02:18:49.930Z,0.00
2022-07-28T02:19:49.902Z,0.00
2022-07-28T02:20:49.864Z,0.00
2022-07-28T02:21:49.812Z,0.00
2022-07-28T02:22:51.241Z,0.00
2022-07-28T02:23:49.737Z,0.00
2022-07-28T02:24:49.702Z,0.00
2022-07-28T02:25:49.666Z,0.00
2022-07-28T02:26:49.638Z,0.00
2022-07-28T02:27:49.583Z,0.00
2022-07-28T02:28:49.544Z,0.00
2022-07-28T02:29:51.267Z,0.00
2022-07-28T02:30:49.532Z,0.00
2022-07-28T02:31:49.428Z,0.00
2022-07-28T02:32:49.399Z,0.00
2022-07-28T02:33:59.972Z,0.00
2022-07-28T02:34:49.310Z,0.00
2022-07-28T02:35:49.306Z,0.00
2022-07-28T02:36:49.231Z,0.00
2022-07-28T02:37:49.193Z,0.00
2022-07-28T02:38:49.170Z,0.00
2022-07-28T02:40:00.380Z,0.00
2022-07-28T02:40:49.078Z,0.00
2022-07-28T02:41:49.035Z,0.00
2022-07-28T02:42:48.998Z,0.00
2022-07-28T02:43:49.777Z,0.00
2022-07-28T02:44:48.935Z,0.00
2022-07-28T02:45:48.954Z,0.00
2022-07-28T02:46:48.844Z,0.00
2022-07-28T02:47:48.807Z,0.00
2022-07-28T02:48:48.833Z,0.00
2022-07-28T02:49:48.727Z,0.00
2022-07-28T02:50:48.696Z,0.00
2022-07-28T02:51:48.650Z,0.00
2022-07-28T02:52:57.760Z,0.00
2022-07-28T02:53:48.586Z,0.00
2022-07-28T02:54:48.531Z,0.00
2022-07-28T02:55:48.490Z,0.00
2022-07-28T02:56:53.307Z,0.00
2022-07-28T02:57:51.988Z,0.00
2022-07-28T02:58:48.374Z,0.00
2022-07-28T02:59:48.344Z,0.00
2022-07-28T03:00:48.299Z,0.00
2022-07-28T03:01:48.297Z,0.00
2022-07-28T03:02:48.234Z,0.00
2022-07-28T03:03:48.178Z,0.00
2022-07-28T03:04:48.212Z,0.00
2022-07-28T03:05:48.101Z,0.00
2022-07-28T03:06:48.063Z,0.00
2022-07-28T03:07:50.557Z,4.00
2022-07-28T03:08:47.999Z,4.00
2022-07-28T03:09:47.944Z,0.00
2022-07-28T03:10:47.906Z,0.00
2022-07-28T03:11:47.868Z,4.00
2022-07-28T03:12:47.828Z,4.00
2022-07-28T03:13:47.787Z,4.00
2022-07-28T03:14:47.760Z,4.00
2022-07-28T03:15:47.710Z,8.00
2022-07-28T03:16:51.061Z,4.00
2022-07-28T03:17:47.630Z,8.00
2022-07-28T03:18:47.593Z,8.00
2022-07-28T03:19:47.553Z,8.00
2022-07-28T03:20:47.517Z,12.00
2022-07-28T03:21:47.474Z,12.00
2022-07-28T03:22:47.448Z,12.00
2022-07-28T03:23:47.402Z,16.00
2022-07-28T03:24:47.358Z,20.00
2022-07-28T03:25:47.318Z,24.00
2022-07-28T03:26:47.280Z,20.00
2022-07-28T03:27:47.240Z,24.00
2022-07-28T03:28:47.213Z,28.00
2022-07-28T03:29:47.170Z,36.00
2022-07-28T03:30:47.185Z,40.00
2022-07-28T03:31:47.085Z,44.00
2022-07-28T03:32:47.049Z,52.00
2022-07-28T03:33:47.007Z,56.00
2022-07-28T03:34:46.981Z,64.00
2022-07-28T03:35:46.927Z,72.00
2022-07-28T03:36:46.888Z,84.00
2022-07-28T03:37:46.854Z,92.00
2022-07-28T03:38:46.811Z,100.00
2022-07-28T03:39:46.772Z,112.00
2022-07-28T03:40:47.112Z,120.00
2022-07-28T03:41:46.705Z,132.00
2022-07-28T03:42:46.657Z,148.00
2022-07-28T03:43:46.615Z,156.00
2022-07-28T03:44:46.580Z,176.00
2022-07-28T03:45:47.179Z,192.00
2022-07-28T03:46:46.505Z,208.00
2022-07-28T03:47:46.532Z,224.00
2022-07-28T03:48:46.447Z,244.00
2022-07-28T03:49:46.381Z,268.00
2022-07-28T03:50:46.341Z,296.00
2022-07-28T03:51:46.301Z,324.00
2022-07-28T03:52:46.278Z,356.00
2022-07-28T03:53:46.235Z,392.00
2022-07-28T03:54:46.184Z,432.00
2022-07-28T03:55:46.151Z,468.00
2022-07-28T03:56:46.108Z,504.00
2022-07-28T03:57:46.065Z,540.00
2022-07-28T03:58:46.035Z,580.00
2022-07-28T03:59:45.989Z,616.00
2022-07-28T04:00:45.954Z,660.00
2022-07-28T04:01:45.973Z,700.00
2022-07-28T04:02:45.935Z,744.00
2022-07-28T04:03:45.847Z,792.00
2022-07-28T04:04:45.795Z,844.00
2022-07-28T04:05:45.753Z,896.00
2022-07-28T04:06:45.718Z,952.00
2022-07-28T04:07:45.676Z,1008.00
2022-07-28T04:08:45.638Z,1064.00
2022-07-28T04:09:45.611Z,1132.00
2022-07-28T04:10:45.558Z,1196.00
2022-07-28T04:11:45.530Z,1264.00
2022-07-28T04:12:45.481Z,1340.00
2022-07-28T04:13:45.440Z,1432.00
2022-07-28T04:14:45.402Z,1528.00
2022-07-28T04:15:45.372Z,1624.00
2022-07-28T04:16:45.398Z,1712.00
2022-07-28T04:17:45.285Z,1784.00
2022-07-28T04:18:45.261Z,1860.00
2022-07-28T04:19:45.206Z,1936.00
2022-07-28T04:20:45.167Z,2004.00
2022-07-28T04:21:45.126Z,2072.00
2022-07-28T04:22:45.090Z,2148.00
2022-07-28T04:23:45.059Z,2224.00
2022-07-28T04:24:45.011Z,2292.00
2022-07-28T04:25:44.969Z,2360.00
2022-07-28T04:26:44.938Z,2428.00
2022-07-28T04:27:44.891Z,2492.00
2022-07-28T04:28:44.854Z,2548.00
2022-07-28T04:29:44.827Z,2604.00
2022-07-28T04:30:44.968Z,2644.00
2022-07-28T04:31:44.736Z,2656.00
2022-07-28T04:32:44.698Z,2656.00
2022-07-28T04:33:44.658Z,2652.00
2022-07-28T04:34:44.620Z,2640.00
2022-07-28T04:35:44.590Z,2624.00
2022-07-28T04:36:44.554Z,2640.00
2022-07-28T04:37:44.506Z,2696.00
2022-07-28T04:38:44.468Z,2772.00
2022-07-28T04:39:44.426Z,2848.00
2022-07-28T04:40:44.388Z,2936.00
2022-07-28T04:41:44.349Z,3048.00
2022-07-28T04:42:44.329Z,3188.00
2022-07-28T04:43:44.273Z,3348.00
2022-07-28T04:44:44.231Z,3512.00
2022-07-28T04:45:53.131Z,3688.00
2022-07-28T04:46:44.199Z,3844.00
2022-07-28T04:47:44.117Z,3972.00
2022-07-28T04:48:44.152Z,4100.00
2022-07-28T04:49:44.037Z,4200.00
2022-07-28T04:50:43.999Z,4260.00
2022-07-28T04:51:43.960Z,4324.00
2022-07-28T04:52:43.926Z,4388.00
2022-07-28T04:53:43.884Z,4452.00
2022-07-28T04:54:43.856Z,4536.00
2022-07-28T04:55:43.818Z,4620.00
2022-07-28T04:56:43.765Z,4900.00
2022-07-28T04:57:43.727Z,6332.00
2022-07-28T04:58:43.688Z,7376.00
2022-07-28T04:59:43.659Z,8044.00
2022-07-28T05:00:43.669Z,8108.00
2022-07-28T05:01:43.664Z,7336.00
2022-07-28T05:02:43.534Z,7212.00
2022-07-28T05:03:43.499Z,7920.00
2022-07-28T05:04:43.508Z,9064.00
2022-07-28T05:05:43.419Z,10384.00
2022-07-28T05:06:43.381Z,10288.00
2022-07-28T05:07:43.368Z,10200.00
2022-07-28T05:08:43.306Z,10640.00
2022-07-28T05:09:43.271Z,10048.00
2022-07-28T05:10:43.233Z,9176.00
2022-07-28T05:11:43.194Z,8284.00
2022-07-28T05:12:43.158Z,10012.00
2022-07-28T05:13:43.130Z,10016.00
2022-07-28T05:14:43.080Z,11028.00
2022-07-28T05:15:43.044Z,10708.00
2022-07-28T05:16:43.088Z,10692.00
2022-07-28T05:17:42.969Z,11060.00
2022-07-28T05:18:42.932Z,12132.00
2022-07-28T05:19:42.912Z,12000.00
2022-07-28T05:20:42.858Z,11060.00
2022-07-28T05:21:42.822Z,10344.00
2022-07-28T05:22:42.785Z,10980.00
2022-07-28T05:23:47.363Z,11184.00
2022-07-28T05:24:42.711Z,11424.00
2022-07-28T05:25:42.686Z,10556.00
2022-07-28T05:26:42.638Z,10664.00
2022-07-28T05:27:42.602Z,10460.00
2022-07-28T05:28:42.566Z,11524.00
2022-07-28T05:29:47.156Z,11908.00
2022-07-28T05:30:42.492Z,11900.00
2022-07-28T05:31:42.517Z,12204.00
2022-07-28T05:32:42.425Z,12596.00
2022-07-28T05:33:42.386Z,12644.00
2022-07-28T05:34:42.350Z,12740.00
2022-07-28T05:35:42.316Z,13696.00
2022-07-28T05:36:42.279Z,13652.00
2022-07-28T05:37:42.254Z,13612.00
2022-07-28T05:38:42.209Z,13900.00
2022-07-28T05:39:42.173Z,14920.00
2022-07-28T05:40:42.136Z,16416.00
2022-07-28T05:41:42.101Z,17472.00
2022-07-28T05:42:42.074Z,18272.00
2022-07-28T05:43:42.031Z,18112.00
2022-07-28T05:44:41.995Z,17920.00
2022-07-28T05:45:42.032Z,17696.00
2022-07-28T05:46:41.923Z,18752.00
2022-07-28T05:47:41.895Z,18944.00
2022-07-28T05:48:41.920Z,19168.00
2022-07-28T05:49:41.823Z,18944.00
2022-07-28T05:50:41.787Z,18752.00
2022-07-28T05:51:42.062Z,18816.00
2022-07-28T05:52:41.718Z,18624.00
2022-07-28T05:53:41.698Z,19168.00
2022-07-28T05:54:41.653Z,19328.00
2022-07-28T05:56:00.937Z,18816.00
2022-07-28T05:56:41.680Z,20864.00
2022-07-28T05:57:41.549Z,21728.00
2022-07-28T05:58:41.511Z,23296.00
2022-07-28T05:59:41.494Z,23296.00
2022-07-28T06:00:41.541Z,23424.00
2022-07-28T06:01:41.466Z,24256.00
2022-07-28T06:02:41.422Z,17952.00
2022-07-28T06:03:42.547Z,17696.00
2022-07-28T06:04:41.308Z,17696.00
2022-07-28T06:06:00.532Z,13304.00
2022-07-28T06:06:41.245Z,20864.00
2022-07-28T06:07:42.788Z,21120.00
2022-07-28T06:08:41.177Z,15968.00
2022-07-28T06:09:45.099Z,17504.00
2022-07-28T06:10:41.108Z,21888.00
2022-07-28T06:11:41.088Z,20672.00
2022-07-28T06:12:41.057Z,26688.00
2022-07-28T06:13:41.011Z,23648.00
2022-07-28T06:14:40.979Z,19104.00
2022-07-28T06:15:40.943Z,14276.00
2022-07-28T06:16:40.993Z,21504.00
2022-07-28T06:17:40.877Z,14368.00
2022-07-28T06:18:40.843Z,13760.00
2022-07-28T06:19:40.809Z,17632.00
2022-07-28T06:20:40.775Z,17920.00
2022-07-28T06:21:41.578Z,28544.00
2022-07-28T06:22:40.720Z,28256.00
2022-07-28T06:23:40.676Z,28896.00
2022-07-28T06:24:40.639Z,25760.00
2022-07-28T06:25:40.605Z,26240.00
2022-07-28T06:26:44.445Z,15776.00
2022-07-28T06:27:40.539Z,32352.00
2022-07-28T06:28:40.523Z,32000.00
2022-07-28T06:29:40.473Z,24064.00
2022-07-28T06:30:40.447Z,34080.00
2022-07-28T06:31:40.506Z,29504.00
2022-07-28T06:32:40.394Z,30848.00
2022-07-28T06:33:40.342Z,24320.00
2022-07-28T06:34:40.305Z,21440.00
2022-07-28T06:35:44.952Z,20064.00
2022-07-28T06:36:40.251Z,18912.00
2022-07-28T06:37:40.207Z,20256.00
2022-07-28T06:38:40.169Z,21472.00
2022-07-28T06:39:40.137Z,20832.00
2022-07-28T06:40:40.117Z,21664.00
2022-07-28T06:41:40.069Z,18816.00
2022-07-28T06:42:40.035Z,18336.00
2022-07-28T06:43:40.004Z,16704.00
2022-07-28T06:44:57.977Z,16288.00
2022-07-28T06:45:39.937Z,15944.00
2022-07-28T06:46:39.970Z,15764.00
2022-07-28T06:47:45.688Z,15668.00
2022-07-28T06:48:39.910Z,15612.00
2022-07-28T06:49:39.805Z,16096.00
2022-07-28T06:50:39.772Z,27552.00
2022-07-28T06:51:39.734Z,16896.00
2022-07-28T06:52:39.694Z,23168.00
2022-07-28T06:53:39.680Z,19552.00
2022-07-28T06:54:39.631Z,20160.00
2022-07-28T06:55:41.254Z,24960.00
2022-07-28T06:56:39.563Z,19104.00
2022-07-28T06:57:39.533Z,34816.00
2022-07-28T06:58:39.496Z,21312.00
2022-07-28T06:59:39.476Z,34144.00
2022-07-28T07:00:39.493Z,30304.00
2022-07-28T07:01:39.398Z,30880.00
2022-07-28T07:02:39.361Z,33088.00
2022-07-28T07:03:39.326Z,27552.00
2022-07-28T07:04:39.308Z,16012.00
2022-07-28T07:05:39.275Z,18528.00
2022-07-28T07:06:39.226Z,18240.00
2022-07-28T07:07:42.947Z,20032.00
2022-07-28T07:08:39.160Z,23200.00
2022-07-28T07:09:39.127Z,16800.00
2022-07-28T07:10:39.105Z,17728.00
2022-07-28T07:11:39.062Z,32064.00
2022-07-28T07:12:39.041Z,17472.00
2022-07-28T07:13:38.996Z,18528.00
2022-07-28T07:14:38.960Z,23456.00
2022-07-28T07:15:38.936Z,26496.00
2022-07-28T07:16:38.949Z,18560.00
2022-07-28T07:17:38.875Z,23168.00
2022-07-28T07:18:38.846Z,22208.00
2022-07-28T07:19:38.795Z,18432.00
2022-07-28T07:20:38.770Z,29824.00
2022-07-28T07:21:38.729Z,17792.00
2022-07-28T07:22:38.701Z,17824.00
2022-07-28T07:23:38.683Z,17440.00
2022-07-28T07:24:38.638Z,18272.00
2022-07-28T07:25:38.597Z,23968.00
2022-07-28T07:26:38.563Z,18912.00
2022-07-28T07:27:38.531Z,31744.00
2022-07-28T07:28:38.495Z,25696.00
2022-07-28T07:29:38.466Z,33600.00
2022-07-28T07:30:38.442Z,19232.00
2022-07-28T07:31:38.454Z,25216.00
2022-07-28T07:32:38.363Z,18848.00
2022-07-28T07:33:38.329Z,18240.00
2022-07-28T07:34:38.297Z,19520.00
2022-07-28T07:35:38.263Z,27904.00
2022-07-28T07:36:38.227Z,26080.00
2022-07-28T07:37:38.211Z,32416.00
2022-07-28T07:38:38.164Z,24896.00
2022-07-28T07:39:38.135Z,21376.00
2022-07-28T07:40:38.100Z,16704.00
2022-07-28T07:41:38.063Z,26528.00
2022-07-28T07:42:38.040Z,29664.00
2022-07-28T07:43:37.996Z,30464.00
2022-07-28T07:44:37.970Z,29888.00
2022-07-28T07:45:37.929Z,29792.00
2022-07-28T07:46:37.945Z,29664.00
2022-07-28T07:47:37.865Z,27040.00
2022-07-28T07:48:37.902Z,29184.00
2022-07-28T07:49:45.232Z,28992.00
2022-07-28T07:50:37.761Z,28736.00
2022-07-28T07:51:37.731Z,28768.00
2022-07-28T07:52:37.705Z,28512.00
2022-07-28T07:53:37.664Z,28640.00
2022-07-28T07:54:37.630Z,28608.00
2022-07-28T07:55:37.843Z,28352.00
2022-07-28T07:56:37.572Z,28448.00
2022-07-28T07:57:37.535Z,27552.00
2022-07-28T07:58:37.503Z,28000.00
2022-07-28T07:59:37.474Z,27936.00
2022-07-28T08:00:37.440Z,27744.00
2022-07-28T08:01:37.464Z,28512.00
2022-07-28T08:02:37.371Z,28768.00
2022-07-28T08:03:37.375Z,28736.00
2022-07-28T08:04:38.554Z,28576.00
2022-07-28T08:05:37.293Z,28512.00
2022-07-28T08:06:37.259Z,28544.00
2022-07-28T08:07:37.274Z,28512.00
2022-07-28T08:08:43.861Z,28640.00
2022-07-28T08:09:37.174Z,28672.00
2022-07-28T08:10:37.149Z,28544.00
2022-07-28T08:11:37.100Z,28512.00
2022-07-28T08:12:37.076Z,28512.00
2022-07-28T08:13:37.044Z,28672.00
2022-07-28T08:14:37.020Z,28896.00
2022-07-28T08:15:36.984Z,28768.00
2022-07-28T08:16:37.005Z,28672.00
2022-07-28T08:17:36.911Z,28576.00
2022-07-28T08:18:36.909Z,28512.00
2022-07-28T08:19:36.843Z,28416.00
2022-07-28T08:20:36.828Z,28608.00
2022-07-28T08:21:36.776Z,28800.00
2022-07-28T08:22:36.768Z,28928.00
2022-07-28T08:23:36.721Z,29024.00
2022-07-28T08:24:36.703Z,28832.00
2022-07-28T08:25:36.666Z,29216.00
2022-07-28T08:26:36.638Z,28896.00
2022-07-28T08:27:36.596Z,29216.00
2022-07-28T08:28:36.579Z,29216.00
2022-07-28T08:29:36.527Z,29152.00
2022-07-28T08:30:36.494Z,28928.00
2022-07-28T08:31:36.649Z,28928.00
2022-07-28T08:32:36.432Z,29216.00
2022-07-28T08:33:36.409Z,28864.00
2022-07-28T08:34:36.511Z,28288.00
2022-07-28T08:35:36.349Z,29824.00
2022-07-28T08:36:36.335Z,29952.00
2022-07-28T08:37:36.295Z,29696.00
2022-07-28T08:38:36.250Z,29536.00
2022-07-28T08:39:36.221Z,29536.00
2022-07-28T08:40:36.194Z,29632.00
2022-07-28T08:41:36.175Z,29472.00
2022-07-28T08:42:36.133Z,29536.00
2022-07-28T08:43:36.138Z,29632.00
2022-07-28T08:44:36.064Z,29760.00
2022-07-28T08:45:37.429Z,29856.00
2022-07-28T08:46:36.044Z,30048.00
2022-07-28T08:47:45.959Z,29824.00
2022-07-28T08:48:36.017Z,30592.00
2022-07-28T08:49:35.921Z,30912.00
2022-07-28T08:50:35.879Z,30944.00
2022-07-28T08:51:35.852Z,31104.00
2022-07-28T08:52:44.926Z,31200.00
2022-07-28T08:53:35.791Z,30912.00
2022-07-28T08:54:35.758Z,30816.00
2022-07-28T08:55:35.753Z,30784.00
2022-07-28T08:56:35.698Z,30464.00
2022-07-28T08:57:35.669Z,30880.00
2022-07-28T08:58:35.646Z,30624.00
2022-07-28T08:59:35.604Z,30624.00
2022-07-28T09:00:35.576Z,30528.00
2022-07-28T09:01:38.953Z,30528.00
2022-07-28T09:02:35.640Z,30272.00
2022-07-28T09:03:35.495Z,30368.00
2022-07-28T09:04:35.457Z,30240.00
2022-07-28T09:05:35.421Z,30400.00
2022-07-28T09:06:35.405Z,30816.00
2022-07-28T09:07:35.362Z,30528.00
2022-07-28T09:08:35.334Z,30560.00
2022-07-28T09:09:35.300Z,30528.00
2022-07-28T09:10:35.271Z,30624.00
2022-07-28T09:11:35.240Z,30240.00
2022-07-28T09:12:35.220Z,29728.00
2022-07-28T09:13:35.178Z,30144.00
2022-07-28T09:14:35.148Z,29760.00
2022-07-28T09:15:35.175Z,31200.00
2022-07-28T09:16:35.088Z,31232.00
2022-07-28T09:17:35.062Z,30848.00
2022-07-28T09:18:35.037Z,30656.00
2022-07-28T09:19:35.932Z,30432.00
2022-07-28T09:20:34.969Z,31232.00
2022-07-28T09:21:34.946Z,30976.00
2022-07-28T09:22:34.913Z,31328.00
2022-07-28T09:23:42.437Z,30752.00
2022-07-28T09:24:34.857Z,31232.00
2022-07-28T09:25:34.832Z,31680.00
2022-07-28T09:26:34.788Z,32032.00
2022-07-28T09:27:34.759Z,31776.00
2022-07-28T09:28:34.726Z,31520.00
2022-07-28T09:29:34.695Z,32096.00
2022-07-28T09:30:34.676Z,31648.00
2022-07-28T09:31:34.689Z,32096.00
2022-07-28T09:32:34.607Z,32192.00
2022-07-28T09:33:41.956Z,32928.00
2022-07-28T09:34:34.549Z,33280.00
2022-07-28T09:35:34.519Z,33216.00
2022-07-28T09:36:34.491Z,33376.00
2022-07-28T09:37:34.474Z,34080.00
2022-07-28T09:38:34.430Z,33984.00
2022-07-28T09:39:34.400Z,34240.00
2022-07-28T09:40:34.369Z,33824.00
2022-07-28T09:41:34.337Z,33248.00
2022-07-28T09:42:34.312Z,33312.00
2022-07-28T09:43:34.297Z,33984.00
2022-07-28T09:44:34.251Z,33376.00
2022-07-28T09:45:34.222Z,32640.00
2022-07-28T09:46:34.306Z,32064.00
2022-07-28T09:47:34.378Z,32864.00
2022-07-28T09:48:34.289Z,33152.00
2022-07-28T09:49:34.246Z,33696.00
2022-07-28T09:50:34.076Z,33344.00
2022-07-28T09:51:34.045Z,32928.00
2022-07-28T09:52:34.017Z,33312.00
2022-07-28T09:53:34.004Z,33472.00
2022-07-28T09:54:38.748Z,34464.00
2022-07-28T09:55:33.949Z,35040.00
2022-07-28T09:56:33.901Z,34496.00
2022-07-28T09:57:33.870Z,34976.00
2022-07-28T09:58:33.843Z,34112.00
2022-07-28T09:59:33.813Z,34848.00
2022-07-28T10:00:33.789Z,34496.00
2022-07-28T10:01:37.030Z,33408.00
2022-07-28T10:02:33.814Z,32864.00
2022-07-28T10:03:33.698Z,33632.00
2022-07-28T10:04:33.672Z,33280.00
2022-07-28T10:05:33.639Z,32832.00
2022-07-28T10:06:33.629Z,33280.00
2022-07-28T10:07:33.582Z,33600.00
2022-07-28T10:08:33.553Z,34464.00
2022-07-28T10:09:33.526Z,35776.00
2022-07-28T10:10:33.505Z,35200.00
2022-07-28T10:11:36.523Z,35104.00
2022-07-28T10:12:33.455Z,33568.00
2022-07-28T10:13:33.408Z,36640.00
2022-07-28T10:14:33.378Z,33024.00
2022-07-28T10:15:33.437Z,23360.00
2022-07-28T10:16:33.399Z,15712.00
2022-07-28T10:17:33.295Z,33600.00
2022-07-28T10:18:33.285Z,33792.00
2022-07-28T10:19:33.236Z,33792.00
2022-07-28T10:20:33.210Z,34144.00
2022-07-28T10:21:33.179Z,34880.00
2022-07-28T10:22:33.326Z,35776.00
2022-07-28T10:23:33.130Z,36480.00
2022-07-28T10:24:33.107Z,35712.00
2022-07-28T10:25:33.064Z,36736.00
2022-07-28T10:26:33.035Z,36320.00
2022-07-28T10:27:33.007Z,36640.00
2022-07-28T10:28:32.979Z,35712.00
2022-07-28T10:29:32.949Z,37088.00
2022-07-28T10:30:33.002Z,36384.00
2022-07-28T10:31:32.892Z,36160.00
2022-07-28T10:32:32.864Z,35264.00
2022-07-28T10:33:32.840Z,36608.00
2022-07-28T10:34:32.805Z,35776.00
2022-07-28T10:35:32.779Z,34592.00
2022-07-28T10:36:32.764Z,34592.00
2022-07-28T10:37:32.718Z,34304.00
2022-07-28T10:38:32.695Z,34624.00
2022-07-28T10:39:32.661Z,35936.00
2022-07-28T10:40:32.635Z,36064.00
2022-07-28T10:41:32.605Z,34976.00
2022-07-28T10:42:32.588Z,35232.00
2022-07-28T10:43:32.549Z,35232.00
2022-07-28T10:44:32.537Z,36800.00
2022-07-28T10:45:55.275Z,37824.00
2022-07-28T10:46:32.499Z,36320.00
2022-07-28T10:47:35.986Z,36096.00
2022-07-28T10:48:32.405Z,38016.00
2022-07-28T10:49:33.188Z,37856.00
2022-07-28T10:50:32.359Z,37600.00
2022-07-28T10:51:32.319Z,37408.00
2022-07-28T10:52:46.797Z,36992.00
2022-07-28T10:53:32.260Z,35296.00
2022-07-28T10:54:32.237Z,26976.00
2022-07-28T10:55:32.503Z,29248.00
2022-07-28T10:56:32.176Z,39040.00
2022-07-28T10:57:32.146Z,26720.00
2022-07-28T10:58:32.136Z,26784.00
2022-07-28T10:59:32.091Z,40960.00
2022-07-28T11:00:46.854Z,38048.00
2022-07-28T11:01:47.538Z,39584.00
2022-07-28T11:02:32.116Z,39296.00
2022-07-28T11:03:32.120Z,38624.00
2022-07-28T11:04:31.959Z,40384.00
2022-07-28T11:05:32.071Z,35776.00
2022-07-28T11:06:31.894Z,36352.00
2022-07-28T11:07:31.862Z,35168.00
2022-07-28T11:08:31.836Z,30048.00
2022-07-28T11:09:31.803Z,31328.00
2022-07-28T11:10:31.792Z,32736.00
2022-07-28T11:11:31.745Z,31520.00
2022-07-28T11:12:31.720Z,29440.00
2022-07-28T11:13:33.010Z,29504.00
2022-07-28T11:14:31.662Z,30272.00
2022-07-28T11:15:32.013Z,35392.00
2022-07-28T11:16:36.038Z,38240.00
2022-07-28T11:17:33.823Z,36800.00
2022-07-28T11:18:31.545Z,36480.00
2022-07-28T11:19:41.956Z,37920.00
2022-07-28T11:20:31.626Z,37088.00
2022-07-28T11:21:31.458Z,36352.00
2022-07-28T11:22:32.182Z,38336.00
2022-07-28T11:23:31.396Z,37920.00
2022-07-28T11:24:31.366Z,35360.00
2022-07-28T11:25:31.340Z,31968.00
2022-07-28T11:26:31.309Z,31360.00
2022-07-28T11:27:31.281Z,33824.00
2022-07-28T11:28:31.265Z,38496.00
2022-07-28T11:29:31.222Z,38848.00
2022-07-28T11:30:31.220Z,40448.00
2022-07-28T11:31:31.164Z,41568.00
2022-07-28T11:32:40.848Z,39776.00
2022-07-28T11:33:31.115Z,38240.00
2022-07-28T11:34:31.075Z,36320.00
2022-07-28T11:35:31.052Z,36992.00
2022-07-28T11:36:31.019Z,36544.00
2022-07-28T11:37:30.991Z,35680.00
2022-07-28T11:38:30.975Z,35136.00
2022-07-28T11:39:30.935Z,34016.00
2022-07-28T11:40:30.905Z,30944.00
2022-07-28T11:41:30.874Z,33920.00
2022-07-28T11:42:31.130Z,26208.00
2022-07-28T11:43:36.456Z,22432.00
2022-07-28T11:44:30.789Z,22560.00
2022-07-28T11:45:38.420Z,20384.00
2022-07-28T11:46:30.749Z,19360.00
2022-07-28T11:47:30.701Z,42144.00
2022-07-28T11:48:30.689Z,27840.00
2022-07-28T11:49:30.718Z,27232.00
2022-07-28T11:50:30.615Z,53120.00
2022-07-28T11:51:30.588Z,44832.00
2022-07-28T11:52:30.561Z,44512.00
2022-07-28T11:53:30.526Z,46592.00
2022-07-28T11:54:30.509Z,42688.00
2022-07-28T11:55:55.481Z,39136.00
2022-07-28T11:56:30.444Z,39392.00
2022-07-28T11:57:30.413Z,41824.00
2022-07-28T11:58:30.382Z,40448.00
2022-07-28T11:59:36.517Z,46592.00
2022-07-28T12:00:30.328Z,47168.00
2022-07-28T12:01:32.043Z,46720.00
2022-07-28T12:02:30.309Z,45216.00
2022-07-28T12:03:50.097Z,43744.00
2022-07-28T12:04:30.265Z,49856.00
2022-07-28T12:05:34.242Z,49120.00
2022-07-28T12:06:30.150Z,49408.00
2022-07-28T12:07:30.816Z,46304.00
2022-07-28T12:08:30.093Z,44800.00
2022-07-28T12:09:39.787Z,43200.00
2022-07-28T12:10:54.091Z,44768.00
2022-07-28T12:11:30.007Z,45024.00
2022-07-28T12:12:29.980Z,44960.00
2022-07-28T12:13:29.951Z,44512.00